»·PEaware :: AAL250 KSLC-KPHX

AAL250 :: KSLC-KPHX

FLIGHT INFORMATION

Flight Status: Arrived
Operator:
American Airlines
More flights by this operator :: More flights under this callsign
Pilot: Erik S. (14620)
Aircraft: MCDONNELL-DOUGLAS MD-88
(MD88)
More flights by this aircraft type
Origin: KSLC Salt Lake City Intl
United States
Destination: KPHX Phoenix Sky Harbor Intl
United States
More flights between these airports :: More routes between these airports
Route: +EDETH5 MLF CORKR TENTS BRUSR1
File this flight plan on PilotEdge
Remarks:
Altitude:
(Current/Filed)
35,000ft
Speed:
(Current/Filed)
443kts
Departed: 01-May-18 10:23 AM
Arrived: 01-May-18 11:49 AM
Distance/Time
Traveled:
441nm/1:26
Distance/Time
To Go:
Arrived

Flight Plot

Page will automatically refresh every two minutes.

Flight plan parsing failed; only flown route is shown


Map Options




Map Legend


Flown Route
Filed Route
Departure Airport
Arrival Airport
Navaid (VOR, NDB)
Fix

Horizontal Profiles

Position Reports

Time Latitude Longitude Heading Altitude Ground
Speed
01-May-18 09:54 40.787114 -111.987312 206 4234ft 0kts
01-May-18 09:55 40.787114 -111.987312 206 4234ft 0kts
01-May-18 09:56 40.787114 -111.987312 206 4234ft 0kts
01-May-18 09:57 40.787114 -111.987312 206 4234ft 0kts
01-May-18 09:58 40.787114 -111.987312 206 4234ft 0kts
01-May-18 09:59 40.787114 -111.987312 206 4234ft 0kts
01-May-18 10:00 40.787114 -111.987312 206 4234ft 0kts
01-May-18 10:01 40.787114 -111.987312 206 4233ft 0kts
01-May-18 10:02 40.787114 -111.987312 206 4233ft 0kts
01-May-18 10:03 40.787114 -111.987312 206 4233ft 0kts
01-May-18 10:04 40.787114 -111.987312 206 4233ft 0kts
01-May-18 10:05 40.787114 -111.987312 206 4233ft 0kts
01-May-18 10:06 40.787114 -111.987312 206 4233ft 0kts
01-May-18 10:07 40.787114 -111.987312 206 4233ft 0kts
01-May-18 10:08 40.787114 -111.987312 206 4233ft 0kts
01-May-18 10:09 40.787114 -111.987312 206 4233ft 0kts
01-May-18 10:10 40.787114 -111.987312 206 4233ft 0kts
01-May-18 10:11 40.787207 -111.987251 206 4233ft 2kts
01-May-18 10:12 40.787501 -111.986642 276 4233ft 2kts
01-May-18 10:13 40.787458 -111.986435 290 4233ft 0kts
01-May-18 10:14 40.787458 -111.986435 290 4233ft 0kts
01-May-18 10:15 40.787458 -111.986435 290 4233ft 0kts
01-May-18 10:16 40.787463 -111.986450 290 4233ft 0kts
01-May-18 10:17 40.787708 -111.991214 264 4233ft 17kts
01-May-18 10:18 40.783458 -111.993274 175 4233ft 24kts
01-May-18 10:19 40.777536 -111.992684 164 4233ft 8kts
01-May-18 10:20 40.774992 -111.993640 306 4233ft 0kts
01-May-18 10:21 40.775254 -111.995259 307 4233ft 5kts
01-May-18 10:22 40.777923 -111.995808 357 4233ft 58kts
01-May-18 10:23 40.817927 -112.001913 337 4690ft 211kts
01-May-18 10:24 40.836199 -112.059149 260 7409ft 201kts
01-May-18 10:25 40.826763 -112.140557 252 8885ft 261kts
01-May-18 10:26 40.801150 -112.237131 230 9998ft 290kts
01-May-18 10:27 40.729127 -112.283418 190 11584ft 304kts
01-May-18 10:28 40.648393 -112.298911 186 13646ft 337kts
01-May-18 10:29 40.555268 -112.313507 188 16281ft 348kts
01-May-18 10:30 40.459837 -112.333687 188 18660ft 356kts
01-May-18 10:31 40.361923 -112.354155 189 20765ft 364kts
01-May-18 10:32 40.268038 -112.406119 208 22215ft 385kts
01-May-18 10:33 40.174515 -112.473125 207 23809ft 393kts
01-May-18 10:34 40.078374 -112.540493 207 25305ft 399kts
01-May-18 10:35 39.985123 -112.605722 207 26575ft 405kts
01-May-18 10:36 39.888323 -112.673446 207 27727ft 411kts
01-May-18 10:37 39.788364 -112.743420 207 28795ft 415kts
01-May-18 10:38 39.687380 -112.812355 201 29966ft 413kts
01-May-18 10:39 39.575461 -112.835379 187 31035ft 414kts
01-May-18 10:40 39.462847 -112.851561 188 32041ft 411kts
01-May-18 10:41 39.351425 -112.868094 188 32954ft 410kts
01-May-18 10:42 39.239852 -112.884681 189 33785ft 409kts
01-May-18 10:43 39.128608 -112.901173 188 34545ft 408kts
01-May-18 10:44 39.018275 -112.917251 189 34912ft 400kts
01-May-18 10:45 38.911133 -112.932809 191 34904ft 384kts
01-May-18 10:46 38.809239 -112.947710 191 34911ft 379kts
01-May-18 10:47 38.705252 -112.962883 191 34912ft 381kts
01-May-18 10:48 38.600592 -112.978128 191 34910ft 384kts
01-May-18 10:49 38.495843 -112.993392 191 34910ft 384kts
01-May-18 10:50 38.390592 -113.008576 189 34906ft 387kts
01-May-18 10:51 38.283503 -112.992927 173 34907ft 398kts
01-May-18 10:52 38.177085 -112.963275 174 34906ft 395kts
01-May-18 10:53 38.071175 -112.934752 175 34903ft 393kts
01-May-18 10:54 37.966256 -112.906547 175 34907ft 391kts
01-May-18 10:55 37.862758 -112.878729 175 34924ft 390kts
01-May-18 10:56 37.758389 -112.850673 176 34924ft 387kts
01-May-18 10:57 37.655386 -112.822982 176 34924ft 386kts
01-May-18 10:58 37.551981 -112.795178 176 34921ft 384kts
01-May-18 10:59 37.448661 -112.767400 176 34923ft 385kts
01-May-18 11:00 37.346044 -112.739808 176 34921ft 384kts
01-May-18 11:01 37.242976 -112.712085 176 34908ft 385kts
01-May-18 11:02 37.139106 -112.684137 176 34907ft 385kts
01-May-18 11:03 37.035967 -112.656381 176 34905ft 382kts
01-May-18 11:04 36.933667 -112.628860 177 34903ft 380kts
01-May-18 11:05 36.832962 -112.601772 177 34496ft 380kts
01-May-18 11:06 36.731835 -112.574558 177 34058ft 374kts
01-May-18 11:07 36.631306 -112.547515 177 33616ft 372kts
01-May-18 11:08 36.532137 -112.520827 176 33167ft 369kts
01-May-18 11:09 36.434267 -112.494486 176 32712ft 367kts
01-May-18 11:10 36.336434 -112.468154 176 32246ft 364kts
01-May-18 11:11 36.238968 -112.441918 176 31768ft 362kts
01-May-18 11:12 36.142900 -112.416056 176 31286ft 359kts
01-May-18 11:13 36.046917 -112.402145 190 30796ft 343kts
01-May-18 11:14 35.951101 -112.411843 190 30523ft 351kts
01-May-18 11:15 35.857172 -112.420172 190 30053ft 345kts
01-May-18 11:17 35.762860 -112.428420 190 29625ft 343kts
01-May-18 11:18 35.669195 -112.436592 189 29188ft 342kts
01-May-18 11:19 35.575855 -112.444729 189 28950ft 339kts
01-May-18 11:20 35.478994 -112.449839 181 28952ft 369kts
01-May-18 11:21 35.375285 -112.429153 177 28942ft 388kts
01-May-18 11:22 35.270578 -112.408395 177 28938ft 384kts
01-May-18 11:23 35.166670 -112.388019 177 28937ft 384kts
01-May-18 11:24 35.062480 -112.365614 176 28935ft 385kts
01-May-18 11:25 34.958607 -112.342724 177 28920ft 388kts
01-May-18 11:26 34.859375 -112.320872 179 28932ft 395kts
01-May-18 11:27 34.750701 -112.298072 178 28634ft 408kts
01-May-18 11:28 34.645691 -112.274566 178 26459ft 365kts
01-May-18 11:29 34.549638 -112.253206 177 24155ft 351kts
01-May-18 11:30 34.455649 -112.232315 176 21944ft 351kts
01-May-18 11:31 34.364581 -112.209690 174 19673ft 320kts
01-May-18 11:32 34.281247 -112.187967 174 17916ft 307kts
01-May-18 11:33 34.199352 -112.166802 173 16304ft 302kts
01-May-18 11:34 34.119042 -112.145709 172 14784ft 295kts
01-May-18 11:35 34.041667 -112.119353 166 13360ft 290kts
01-May-18 11:36 33.966860 -112.088603 165 11942ft 285kts
01-May-18 11:37 33.894731 -112.059221 165 10853ft 275kts
01-May-18 11:38 33.823113 -112.030228 164 9571ft 273kts
01-May-18 11:39 33.753302 -112.001859 164 8898ft 259kts
01-May-18 11:40 33.687390 -111.975250 163 7983ft 248kts
01-May-18 11:41 33.625121 -111.950092 163 7436ft 229kts
01-May-18 11:42 33.567431 -111.926782 163 7017ft 214kts
01-May-18 11:43 33.522584 -111.886441 100 7008ft 222kts
01-May-18 11:44 33.514384 -111.816690 135 6253ft 206kts
01-May-18 11:44 33.477141 -111.828151 228 5122ft 192kts
01-May-18 11:46 33.448210 -111.892031 259 2842ft 164kts
01-May-18 11:46 33.441683 -111.929907 252 2085ft 128kts
01-May-18 11:48 33.440907 -111.980254 265 1425ft 131kts
01-May-18 11:49 33.440619 -112.013106 235 1140ft 23kts
01-May-18 11:50 33.439823 -112.013186 105 1140ft 3kts
01-May-18 11:51 33.439023 -112.009629 91 1140ft 19kts
01-May-18 11:52 33.438031 -112.007726 258 1140ft 2kts
01-May-18 11:53 33.438002 -112.008112 267 1140ft 0kts
01-May-18 11:54 33.438002 -112.008112 267 1140ft 0kts
01-May-18 11:54 33.438002 -112.008112 267 1140ft 0kts

Navigation Log

Ident Type
Flight plan parsing failed, navigation log unavailable